sensor_id;sensor_type;location;lat;lon;timestamp;pressure;altitude;pressure_sealevel;temperature;humidity
42411;BME280;28056;51.112;0.984;2023-04-04T00:04:51;101927.66;;;6.61;41.41
42411;BME280;28056;51.112;0.984;2023-04-04T00:07:18;101928.66;;;6.50;41.26
42411;BME280;28056;51.112;0.984;2023-04-04T00:09:46;101931.74;;;6.77;41.13
42411;BME280;28056;51.112;0.984;2023-04-04T00:12:13;101934.16;;;6.38;41.44
42411;BME280;28056;51.112;0.984;2023-04-04T00:14:41;101936.97;;;6.72;40.88
42411;BME280;28056;51.112;0.984;2023-04-04T00:17:08;101939.45;;;6.48;41.23
42411;BME280;28056;51.112;0.984;2023-04-04T00:19:36;101944.86;;;6.40;41.27
42411;BME280;28056;51.112;0.984;2023-04-04T00:22:03;101945.79;;;6.34;41.56
42411;BME280;28056;51.112;0.984;2023-04-04T00:24:30;101944.60;;;6.73;41.43
42411;BME280;28056;51.112;0.984;2023-04-04T00:26:58;101945.09;;;6.32;41.43
42411;BME280;28056;51.112;0.984;2023-04-04T00:29:25;101939.53;;;6.43;41.05
42411;BME280;28056;51.112;0.984;2023-04-04T00:31:53;101934.07;;;6.38;40.98
42411;BME280;28056;51.112;0.984;2023-04-04T00:34:20;101935.89;;;6.25;41.65
42411;BME280;28056;51.112;0.984;2023-04-04T00:36:47;101935.16;;;6.26;42.51
42411;BME280;28056;51.112;0.984;2023-04-04T00:39:14;101931.28;;;6.32;41.63
42411;BME280;28056;51.112;0.984;2023-04-04T00:41:42;101929.51;;;6.31;41.61
42411;BME280;28056;51.112;0.984;2023-04-04T00:44:10;101922.90;;;6.36;41.32
42411;BME280;28056;51.112;0.984;2023-04-04T00:46:37;101914.92;;;6.38;41.07
42411;BME280;28056;51.112;0.984;2023-04-04T00:49:04;101915.00;;;6.42;41.02
42411;BME280;28056;51.112;0.984;2023-04-04T00:51:32;101911.45;;;6.49;40.65
42411;BME280;28056;51.112;0.984;2023-04-04T00:53:59;101906.60;;;6.54;41.22
42411;BME280;28056;51.112;0.984;2023-04-04T00:56:26;101904.85;;;6.12;41.35
42411;BME280;28056;51.112;0.984;2023-04-04T00:58:54;101904.14;;;6.66;40.78
42411;BME280;28056;51.112;0.984;2023-04-04T01:01:22;101906.94;;;6.10;41.86
42411;BME280;28056;51.112;0.984;2023-04-04T01:03:49;101906.13;;;6.20;41.55
42411;BME280;28056;51.112;0.984;2023-04-04T01:06:17;101909.46;;;6.22;41.42
42411;BME280;28056;51.112;0.984;2023-04-04T01:08:45;101905.62;;;6.32;41.01
42411;BME280;28056;51.112;0.984;2023-04-04T01:11:13;101906.46;;;6.13;40.83
42411;BME280;28056;51.112;0.984;2023-04-04T01:13:41;101907.29;;;6.65;40.61
42411;BME280;28056;51.112;0.984;2023-04-04T01:16:09;101907.12;;;6.22;41.13
42411;BME280;28056;51.112;0.984;2023-04-04T01:18:37;101899.17;;;6.30;41.37
42411;BME280;28056;51.112;0.984;2023-04-04T01:21:10;101891.38;;;6.25;41.65
42411;BME280;28056;51.112;0.984;2023-04-04T01:23:48;101885.23;;;6.21;41.47
42411;BME280;28056;51.112;0.984;2023-04-04T01:26:20;101885.80;;;6.17;41.79
42411;BME280;28056;51.112;0.984;2023-04-04T01:28:48;101882.12;;;6.08;42.06
42411;BME280;28056;51.112;0.984;2023-04-04T01:31:20;101877.03;;;6.09;41.76
42411;BME280;28056;51.112;0.984;2023-04-04T01:33:54;101869.85;;;6.04;42.09
42411;BME280;28056;51.112;0.984;2023-04-04T01:36:31;101868.16;;;6.01;41.76
42411;BME280;28056;51.112;0.984;2023-04-04T01:39:07;101868.58;;;5.68;42.25
42411;BME280;28056;51.112;0.984;2023-04-04T01:41:36;101862.65;;;5.90;41.70
42411;BME280;28056;51.112;0.984;2023-04-04T01:44:05;101861.75;;;5.86;41.71
42411;BME280;28056;51.112;0.984;2023-04-04T01:46:34;101860.89;;;6.04;41.39
42411;BME280;28056;51.112;0.984;2023-04-04T01:49:02;101865.96;;;6.01;41.33
42411;BME280;28056;51.112;0.984;2023-04-04T01:51:30;101864.49;;;6.07;41.28
42411;BME280;28056;51.112;0.984;2023-04-04T01:53:57;101860.84;;;5.72;41.94
42411;BME280;28056;51.112;0.984;2023-04-04T01:56:24;101862.30;;;5.89;42.07
42411;BME280;28056;51.112;0.984;2023-04-04T01:58:51;101864.15;;;5.70;41.83
42411;BME280;28056;51.112;0.984;2023-04-04T02:01:19;101865.88;;;5.88;41.41
42411;BME280;28056;51.112;0.984;2023-04-04T02:03:46;101866.83;;;5.98;41.57
42411;BME280;28056;51.112;0.984;2023-04-04T02:06:13;101866.83;;;6.10;41.55
42411;BME280;28056;51.112;0.984;2023-04-04T02:08:40;101867.05;;;6.17;41.67
42411;BME280;28056;51.112;0.984;2023-04-04T02:11:07;101869.90;;;5.97;41.57
42411;BME280;28056;51.112;0.984;2023-04-04T02:13:34;101875.67;;;6.01;41.52
42411;BME280;28056;51.112;0.984;2023-04-04T02:16:02;101877.56;;;5.88;42.07
42411;BME280;28056;51.112;0.984;2023-04-04T02:18:29;101876.72;;;5.82;41.68
42411;BME280;28056;51.112;0.984;2023-04-04T02:20:56;101873.07;;;5.96;41.57
42411;BME280;28056;51.112;0.984;2023-04-04T02:23:24;101873.07;;;6.00;41.62
42411;BME280;28056;51.112;0.984;2023-04-04T02:25:52;101877.10;;;5.54;42.26
42411;BME280;28056;51.112;0.984;2023-04-04T02:28:39;101876.39;;;6.03;41.52
42411;BME280;28056;51.112;0.984;2023-04-04T02:31:07;101875.64;;;5.81;41.39
42411;BME280;28056;51.112;0.984;2023-04-04T02:33:35;101875.49;;;5.93;41.25
42411;BME280;28056;51.112;0.984;2023-04-04T02:36:02;101875.59;;;5.66;41.19
42411;BME280;28056;51.112;0.984;2023-04-04T02:38:30;101878.68;;;5.75;40.92
42411;BME280;28056;51.112;0.984;2023-04-04T02:40:58;101876.69;;;5.73;40.91
42411;BME280;28056;51.112;0.984;2023-04-04T02:43:25;101873.47;;;5.57;41.63
42411;BME280;28056;51.112;0.984;2023-04-04T02:45:52;101874.28;;;5.44;42.03
42411;BME280;28056;51.112;0.984;2023-04-04T02:48:19;101873.80;;;5.76;41.44
42411;BME280;28056;51.112;0.984;2023-04-04T02:50:46;101872.11;;;5.57;41.44
42411;BME280;28056;51.112;0.984;2023-04-04T02:53:13;101871.26;;;5.62;41.55
42411;BME280;28056;51.112;0.984;2023-04-04T02:55:41;101862.64;;;5.72;41.87
42411;BME280;28056;51.112;0.984;2023-04-04T02:58:08;101855.47;;;5.59;41.30
42411;BME280;28056;51.112;0.984;2023-04-04T03:00:35;101858.07;;;5.35;42.10
42411;BME280;28056;51.112;0.984;2023-04-04T03:03:02;101853.53;;;5.66;41.59
42411;BME280;28056;51.112;0.984;2023-04-04T03:05:30;101854.63;;;5.83;41.92
42411;BME280;28056;51.112;0.984;2023-04-04T03:07:58;101854.12;;;5.32;41.85
42411;BME280;28056;51.112;0.984;2023-04-04T03:10:27;101848.26;;;5.59;41.88
42411;BME280;28056;51.112;0.984;2023-04-04T03:12:54;101844.47;;;5.51;41.93
42411;BME280;28056;51.112;0.984;2023-04-04T03:15:22;101843.52;;;5.38;42.07
42411;BME280;28056;51.112;0.984;2023-04-04T03:18:05;101842.18;;;5.44;41.89
42411;BME280;28056;51.112;0.984;2023-04-04T03:20:33;101840.84;;;5.51;41.63
42411;BME280;28056;51.112;0.984;2023-04-04T03:23:00;101841.14;;;5.76;41.91
42411;BME280;28056;51.112;0.984;2023-04-04T03:25:28;101841.30;;;5.54;41.72
42411;BME280;28056;51.112;0.984;2023-04-04T03:27:55;101841.75;;;5.59;41.77
42411;BME280;28056;51.112;0.984;2023-04-04T03:30:22;101843.47;;;5.62;41.87
42411;BME280;28056;51.112;0.984;2023-04-04T03:32:49;101846.58;;;5.49;42.56
42411;BME280;28056;51.112;0.984;2023-04-04T03:35:17;101843.77;;;5.49;42.39
42411;BME280;28056;51.112;0.984;2023-04-04T03:37:44;101844.57;;;5.53;42.11
42411;BME280;28056;51.112;0.984;2023-04-04T03:40:11;101848.56;;;5.57;41.89
42411;BME280;28056;51.112;0.984;2023-04-04T03:42:39;101851.82;;;5.55;41.98
42411;BME280;28056;51.112;0.984;2023-04-04T03:45:07;101853.18;;;5.51;42.37
42411;BME280;28056;51.112;0.984;2023-04-04T03:47:35;101856.96;;;5.75;42.07
42411;BME280;28056;51.112;0.984;2023-04-04T03:50:03;101855.60;;;5.66;42.25
42411;BME280;28056;51.112;0.984;2023-04-04T03:52:30;101855.71;;;5.47;41.92
42411;BME280;28056;51.112;0.984;2023-04-04T03:54:57;101853.06;;;5.54;41.89
42411;BME280;28056;51.112;0.984;2023-04-04T03:57:26;101855.29;;;5.71;42.30
42411;BME280;28056;51.112;0.984;2023-04-04T03:59:53;101858.31;;;5.54;42.02
42411;BME280;28056;51.112;0.984;2023-04-04T04:02:20;101866.38;;;5.23;42.59
42411;BME280;28056;51.112;0.984;2023-04-04T04:04:47;101864.96;;;5.29;42.26
42411;BME280;28056;51.112;0.984;2023-04-04T04:07:15;101863.76;;;5.19;42.25
42411;BME280;28056;51.112;0.984;2023-04-04T04:09:43;101867.14;;;5.52;42.62
42411;BME280;28056;51.112;0.984;2023-04-04T04:12:10;101865.07;;;5.32;42.43
42411;BME280;28056;51.112;0.984;2023-04-04T04:14:37;101862.74;;;5.61;42.17
42411;BME280;28056;51.112;0.984;2023-04-04T04:17:05;101863.21;;;5.33;42.40
42411;BME280;28056;51.112;0.984;2023-04-04T04:19:32;101862.75;;;5.36;42.53
42411;BME280;28056;51.112;0.984;2023-04-04T04:21:59;101865.11;;;5.29;42.53
42411;BME280;28056;51.112;0.984;2023-04-04T04:24:27;101867.63;;;5.39;42.12
42411;BME280;28056;51.112;0.984;2023-04-04T04:26:55;101865.60;;;5.57;42.19
42411;BME280;28056;51.112;0.984;2023-04-04T04:29:22;101868.04;;;5.59;42.21
42411;BME280;28056;51.112;0.984;2023-04-04T04:31:50;101866.91;;;5.44;41.92
42411;BME280;28056;51.112;0.984;2023-04-04T04:34:17;101865.71;;;5.43;41.92
42411;BME280;28056;51.112;0.984;2023-04-04T04:36:45;101863.23;;;5.48;41.89
42411;BME280;28056;51.112;0.984;2023-04-04T04:39:11;101863.47;;;5.45;42.28
42411;BME280;28056;51.112;0.984;2023-04-04T04:41:39;101865.08;;;5.21;42.09
42411;BME280;28056;51.112;0.984;2023-04-04T04:44:06;101866.14;;;5.33;42.50
42411;BME280;28056;51.112;0.984;2023-04-04T04:46:33;101869.55;;;5.48;42.87
42411;BME280;28056;51.112;0.984;2023-04-04T04:49:00;101866.09;;;5.14;43.11
42411;BME280;28056;51.112;0.984;2023-04-04T04:51:28;101864.90;;;4.72;43.66
42411;BME280;28056;51.112;0.984;2023-04-04T04:53:55;101865.38;;;5.06;43.31
42411;BME280;28056;51.112;0.984;2023-04-04T04:56:22;101868.07;;;5.11;43.67
42411;BME280;28056;51.112;0.984;2023-04-04T04:58:49;101871.03;;;5.07;43.95
42411;BME280;28056;51.112;0.984;2023-04-04T05:01:17;101870.62;;;5.02;44.12
42411;BME280;28056;51.112;0.984;2023-04-04T05:03:44;101873.61;;;4.72;44.74
42411;BME280;28056;51.112;0.984;2023-04-04T05:06:11;101876.28;;;4.97;43.84
42411;BME280;28056;51.112;0.984;2023-04-04T05:08:39;101879.02;;;5.04;43.78
42411;BME280;28056;51.112;0.984;2023-04-04T05:11:07;101882.06;;;4.96;43.52
42411;BME280;28056;51.112;0.984;2023-04-04T05:13:34;101879.60;;;4.78;44.10
42411;BME280;28056;51.112;0.984;2023-04-04T05:16:02;101881.27;;;4.77;43.71
42411;BME280;28056;51.112;0.984;2023-04-04T05:18:29;101882.90;;;4.39;43.99
42411;BME280;28056;51.112;0.984;2023-04-04T05:20:56;101883.68;;;4.84;43.93
42411;BME280;28056;51.112;0.984;2023-04-04T05:23:24;101884.07;;;4.85;43.92
42411;BME280;28056;51.112;0.984;2023-04-04T05:25:51;101886.19;;;4.66;43.96
42411;BME280;28056;51.112;0.984;2023-04-04T05:28:20;101889.08;;;4.89;43.65
42411;BME280;28056;51.112;0.984;2023-04-04T05:30:47;101887.81;;;4.94;43.52
42411;BME280;28056;51.112;0.984;2023-04-04T05:33:16;101888.55;;;4.96;43.70
42411;BME280;28056;51.112;0.984;2023-04-04T05:35:44;101888.04;;;4.52;43.97
42411;BME280;28056;51.112;0.984;2023-04-04T05:38:12;101888.03;;;4.70;43.58
42411;BME280;28056;51.112;0.984;2023-04-04T05:40:39;101890.53;;;4.98;43.30
42411;BME280;28056;51.112;0.984;2023-04-04T05:43:06;101893.98;;;5.12;42.94
42411;BME280;28056;51.112;0.984;2023-04-04T05:45:34;101891.95;;;4.69;43.69
42411;BME280;28056;51.112;0.984;2023-04-04T05:48:01;101891.23;;;4.91;43.75
42411;BME280;28056;51.112;0.984;2023-04-04T05:50:29;101894.05;;;5.12;43.36
42411;BME280;28056;51.112;0.984;2023-04-04T05:52:57;101893.23;;;4.69;44.47
42411;BME280;28056;51.112;0.984;2023-04-04T05:55:24;101899.21;;;5.02;43.98
42411;BME280;28056;51.112;0.984;2023-04-04T05:57:52;101900.21;;;4.80;43.84
42411;BME280;28056;51.112;0.984;2023-04-04T06:00:20;101903.69;;;5.05;44.05
42411;BME280;28056;51.112;0.984;2023-04-04T06:02:48;101903.80;;;5.05;44.27
42411;BME280;28056;51.112;0.984;2023-04-04T06:05:16;101902.80;;;4.94;44.53
42411;BME280;28056;51.112;0.984;2023-04-04T06:07:44;101901.82;;;4.74;44.52
42411;BME280;28056;51.112;0.984;2023-04-04T06:10:11;101899.81;;;4.87;44.98
42411;BME280;28056;51.112;0.984;2023-04-04T06:12:39;101902.41;;;5.22;44.27
42411;BME280;28056;51.112;0.984;2023-04-04T06:15:07;101902.82;;;5.30;44.25
42411;BME280;28056;51.112;0.984;2023-04-04T06:17:35;101908.17;;;5.25;43.96
42411;BME280;28056;51.112;0.984;2023-04-04T06:20:04;101911.23;;;5.41;43.91
42411;BME280;28056;51.112;0.984;2023-04-04T06:22:32;101914.43;;;5.68;44.07
42411;BME280;28056;51.112;0.984;2023-04-04T06:25:00;101918.39;;;5.50;44.14
42411;BME280;28056;51.112;0.984;2023-04-04T06:27:27;101918.28;;;5.21;44.93
42411;BME280;28056;51.112;0.984;2023-04-04T06:29:55;101921.38;;;5.52;44.61
42411;BME280;28056;51.112;0.984;2023-04-04T06:32:23;101918.09;;;5.32;44.77
42411;BME280;28056;51.112;0.984;2023-04-04T06:34:51;101917.85;;;5.41;45.25
42411;BME280;28056;51.112;0.984;2023-04-04T06:37:18;101920.47;;;5.50;45.25
42411;BME280;28056;51.112;0.984;2023-04-04T06:39:46;101920.87;;;5.46;45.54
42411;BME280;28056;51.112;0.984;2023-04-04T06:42:14;101926.38;;;5.21;45.56
42411;BME280;28056;51.112;0.984;2023-04-04T06:44:41;101922.27;;;5.58;45.06
42411;BME280;28056;51.112;0.984;2023-04-04T06:47:09;101924.45;;;5.56;45.51
42411;BME280;28056;51.112;0.984;2023-04-04T06:49:37;101924.93;;;5.96;45.03
42411;BME280;28056;51.112;0.984;2023-04-04T06:52:05;101927.76;;;5.95;44.69
42411;BME280;28056;51.112;0.984;2023-04-04T06:54:32;101931.66;;;6.07;44.63
42411;BME280;28056;51.112;0.984;2023-04-04T06:56:59;101930.30;;;5.86;45.10
42411;BME280;28056;51.112;0.984;2023-04-04T06:59:27;101930.18;;;5.72;45.35
42411;BME280;28056;51.112;0.984;2023-04-04T07:01:56;101931.66;;;5.86;45.47
42411;BME280;28056;51.112;0.984;2023-04-04T07:04:24;101932.14;;;6.04;45.22
42411;BME280;28056;51.112;0.984;2023-04-04T07:06:51;101931.78;;;6.46;44.53
42411;BME280;28056;51.112;0.984;2023-04-04T07:09:18;101932.00;;;5.98;45.62
42411;BME280;28056;51.112;0.984;2023-04-04T07:11:46;101929.83;;;6.69;44.91
42411;BME280;28056;51.112;0.984;2023-04-04T07:14:13;101924.85;;;6.25;45.19
42411;BME280;28056;51.112;0.984;2023-04-04T07:16:41;101927.08;;;6.67;44.74
42411;BME280;28056;51.112;0.984;2023-04-04T07:19:08;101930.47;;;6.59;45.25
42411;BME280;28056;51.112;0.984;2023-04-04T07:21:36;101931.94;;;7.00;44.33
42411;BME280;28056;51.112;0.984;2023-04-04T07:24:04;101932.20;;;6.60;44.87
42411;BME280;28056;51.112;0.984;2023-04-04T07:26:32;101932.84;;;6.51;45.52
42411;BME280;28056;51.112;0.984;2023-04-04T07:28:59;101931.47;;;5.95;46.73
42411;BME280;28056;51.112;0.984;2023-04-04T07:31:26;101933.41;;;6.61;45.89
42411;BME280;28056;51.112;0.984;2023-04-04T07:33:54;101931.90;;;6.22;46.07
42411;BME280;28056;51.112;0.984;2023-04-04T07:36:21;101929.52;;;6.29;46.17
42411;BME280;28056;51.112;0.984;2023-04-04T07:38:49;101925.15;;;6.07;46.65
42411;BME280;28056;51.112;0.984;2023-04-04T07:41:17;101922.24;;;6.49;45.57
42411;BME280;28056;51.112;0.984;2023-04-04T07:43:44;101919.46;;;7.20;44.35
42411;BME280;28056;51.112;0.984;2023-04-04T07:46:12;101922.71;;;6.79;45.21
42411;BME280;28056;51.112;0.984;2023-04-04T07:48:40;101924.22;;;7.43;44.06
42411;BME280;28056;51.112;0.984;2023-04-04T07:51:14;101923.55;;;7.20;44.14
42411;BME280;28056;51.112;0.984;2023-04-04T07:53:42;101926.99;;;7.38;43.66
42411;BME280;28056;51.112;0.984;2023-04-04T07:56:09;101925.53;;;7.30;43.71
42411;BME280;28056;51.112;0.984;2023-04-04T07:58:37;101926.23;;;7.94;43.59
42411;BME280;28056;51.112;0.984;2023-04-04T08:01:05;101921.28;;;8.19;42.85
42411;BME280;28056;51.112;0.984;2023-04-04T08:03:33;101922.66;;;8.11;43.25
42411;BME280;28056;51.112;0.984;2023-04-04T08:05:59;101919.24;;;7.76;43.85
42411;BME280;28056;51.112;0.984;2023-04-04T08:08:27;101917.49;;;8.38;42.69
42411;BME280;28056;51.112;0.984;2023-04-04T08:10:54;101918.24;;;8.29;41.71
42411;BME280;28056;51.112;0.984;2023-04-04T08:13:21;101917.68;;;8.50;41.91
42411;BME280;28056;51.112;0.984;2023-04-04T08:15:49;101914.81;;;8.97;40.76
42411;BME280;28056;51.112;0.984;2023-04-04T08:18:16;101917.33;;;9.15;40.56
42411;BME280;28056;51.112;0.984;2023-04-04T08:20:44;101913.83;;;9.35;40.00
42411;BME280;28056;51.112;0.984;2023-04-04T08:23:12;101911.64;;;8.95;40.45
42411;BME280;28056;51.112;0.984;2023-04-04T08:25:39;101913.71;;;8.68;39.89
42411;BME280;28056;51.112;0.984;2023-04-04T08:28:07;101912.84;;;9.03;39.44
42411;BME280;28056;51.112;0.984;2023-04-04T08:30:35;101908.27;;;8.05;39.86
42411;BME280;28056;51.112;0.984;2023-04-04T08:33:02;101909.06;;;9.36;40.40
42411;BME280;28056;51.112;0.984;2023-04-04T08:35:29;101911.41;;;9.69;39.90
42411;BME280;28056;51.112;0.984;2023-04-04T08:37:57;101915.68;;;9.47;38.63
42411;BME280;28056;51.112;0.984;2023-04-04T08:40:25;101915.04;;;9.42;38.82
42411;BME280;28056;51.112;0.984;2023-04-04T08:42:53;101917.88;;;8.22;39.96
42411;BME280;28056;51.112;0.984;2023-04-04T08:45:22;101921.07;;;9.48;39.86
42411;BME280;28056;51.112;0.984;2023-04-04T08:47:51;101920.93;;;9.49;40.74
42411;BME280;28056;51.112;0.984;2023-04-04T08:50:19;101916.88;;;9.26;39.91
42411;BME280;28056;51.112;0.984;2023-04-04T08:52:47;101916.48;;;9.78;39.01
42411;BME280;28056;51.112;0.984;2023-04-04T08:55:15;101915.47;;;10.85;38.98
42411;BME280;28056;51.112;0.984;2023-04-04T08:57:43;101914.00;;;10.58;38.21
42411;BME280;28056;51.112;0.984;2023-04-04T09:00:12;101911.80;;;10.42;39.85
42411;BME280;28056;51.112;0.984;2023-04-04T09:02:47;101913.17;;;10.65;39.22
42411;BME280;28056;51.112;0.984;2023-04-04T09:05:21;101913.17;;;11.20;38.60
42411;BME280;28056;51.112;0.984;2023-04-04T09:07:50;101918.74;;;12.18;37.68
42411;BME280;28056;51.112;0.984;2023-04-04T09:10:17;101912.87;;;11.10;35.79
42411;BME280;28056;51.112;0.984;2023-04-04T09:12:46;101913.89;;;12.11;36.77
42411;BME280;28056;51.112;0.984;2023-04-04T09:15:15;101908.77;;;12.59;35.86
42411;BME280;28056;51.112;0.984;2023-04-04T09:17:43;101904.41;;;11.87;37.38
42411;BME280;28056;51.112;0.984;2023-04-04T09:20:43;101901.29;;;11.79;35.88
42411;BME280;28056;51.112;0.984;2023-04-04T09:23:12;101899.74;;;13.19;36.07
42411;BME280;28056;51.112;0.984;2023-04-04T09:25:45;101899.68;;;12.67;36.07
42411;BME280;28056;51.112;0.984;2023-04-04T09:28:14;101903.01;;;12.93;34.55
42411;BME280;28056;51.112;0.984;2023-04-04T09:30:42;101905.63;;;12.50;33.74
42411;BME280;28056;51.112;0.984;2023-04-04T09:33:12;101903.32;;;12.49;34.54
42411;BME280;28056;51.112;0.984;2023-04-04T09:35:44;101906.44;;;13.12;35.20
42411;BME280;28056;51.112;0.984;2023-04-04T09:38:13;101908.67;;;12.90;33.65
42411;BME280;28056;51.112;0.984;2023-04-04T09:40:41;101909.34;;;13.44;34.46
42411;BME280;28056;51.112;0.984;2023-04-04T09:43:11;101908.53;;;14.03;33.92
42411;BME280;28056;51.112;0.984;2023-04-04T09:45:40;101907.97;;;13.39;33.63
42411;BME280;28056;51.112;0.984;2023-04-04T09:48:09;101914.06;;;13.12;34.81
42411;BME280;28056;51.112;0.984;2023-04-04T09:50:40;101913.60;;;13.41;37.28
42411;BME280;28056;51.112;0.984;2023-04-04T09:53:16;101913.96;;;13.06;35.34
42411;BME280;28056;51.112;0.984;2023-04-04T09:55:49;101915.71;;;14.36;34.72
42411;BME280;28056;51.112;0.984;2023-04-04T09:58:18;101912.84;;;13.14;33.26
42411;BME280;28056;51.112;0.984;2023-04-04T10:00:46;101910.90;;;13.87;33.07
42411;BME280;28056;51.112;0.984;2023-04-04T10:03:16;101907.94;;;13.22;30.53
42411;BME280;28056;51.112;0.984;2023-04-04T10:05:44;101905.02;;;13.99;31.55
42411;BME280;28056;51.112;0.984;2023-04-04T10:08:14;101903.85;;;12.96;31.18
42411;BME280;28056;51.112;0.984;2023-04-04T10:10:50;101901.67;;;12.57;35.19
42411;BME280;28056;51.112;0.984;2023-04-04T10:13:26;101900.94;;;12.11;32.92
42411;BME280;28056;51.112;0.984;2023-04-04T10:15:55;101902.88;;;12.58;34.37
42411;BME280;28056;51.112;0.984;2023-04-04T10:18:24;101906.38;;;12.67;32.98
42411;BME280;28056;51.112;0.984;2023-04-04T10:20:54;101904.96;;;12.37;35.43
42411;BME280;28056;51.112;0.984;2023-04-04T10:23:27;101905.57;;;12.74;34.58
42411;BME280;28056;51.112;0.984;2023-04-04T10:25:55;101904.36;;;12.72;34.90
42411;BME280;28056;51.112;0.984;2023-04-04T10:28:25;101902.01;;;13.57;32.40
42411;BME280;28056;51.112;0.984;2023-04-04T10:31:01;101902.79;;;14.09;30.74
42411;BME280;28056;51.112;0.984;2023-04-04T10:33:38;101899.51;;;13.88;33.46
42411;BME280;28056;51.112;0.984;2023-04-04T10:36:08;101896.47;;;14.49;31.14
42411;BME280;28056;51.112;0.984;2023-04-04T10:38:41;101894.98;;;14.16;33.70
42411;BME280;28056;51.112;0.984;2023-04-04T10:41:10;101896.80;;;14.25;32.66
42411;BME280;28056;51.112;0.984;2023-04-04T10:43:40;101888.51;;;14.77;30.16
42411;BME280;28056;51.112;0.984;2023-04-04T10:46:12;101887.02;;;14.25;30.80
42411;BME280;28056;51.112;0.984;2023-04-04T10:48:40;101890.02;;;13.70;29.73
42411;BME280;28056;51.112;0.984;2023-04-04T10:51:10;101887.12;;;14.44;32.30
42411;BME280;28056;51.112;0.984;2023-04-04T10:53:38;101883.15;;;13.19;30.10
42411;BME280;28056;51.112;0.984;2023-04-04T10:56:08;101886.09;;;12.53;34.13
42411;BME280;28056;51.112;0.984;2023-04-04T10:58:39;101886.87;;;13.61;32.44
42411;BME280;28056;51.112;0.984;2023-04-04T11:01:07;101886.13;;;12.92;35.92
42411;BME280;28056;51.112;0.984;2023-04-04T11:04:15;101884.78;;;14.63;31.19
42411;BME280;28056;51.112;0.984;2023-04-04T11:07:52;101875.10;;;14.74;30.00
42411;BME280;28056;51.112;0.984;2023-04-04T11:10:22;101872.91;;;14.30;29.62
42411;BME280;28056;51.112;0.984;2023-04-04T11:12:53;101871.89;;;14.15;31.48
42411;BME280;28056;51.112;0.984;2023-04-04T11:15:22;101870.82;;;14.09;33.35
42411;BME280;28056;51.112;0.984;2023-04-04T11:17:55;101874.81;;;14.06;33.12
42411;BME280;28056;51.112;0.984;2023-04-04T11:20:30;101872.85;;;14.14;33.51
42411;BME280;28056;51.112;0.984;2023-04-04T11:23:07;101872.82;;;13.68;33.00
42411;BME280;28056;51.112;0.984;2023-04-04T11:25:38;101867.70;;;13.33;31.18
42411;BME280;28056;51.112;0.984;2023-04-04T11:28:11;101866.17;;;12.82;33.33
42411;BME280;28056;51.112;0.984;2023-04-04T11:30:40;101864.36;;;14.01;33.61
42411;BME280;28056;51.112;0.984;2023-04-04T11:33:10;101858.08;;;13.84;33.38
42411;BME280;28056;51.112;0.984;2023-04-04T11:35:38;101848.73;;;14.13;29.96
42411;BME280;28056;51.112;0.984;2023-04-04T11:38:12;101846.13;;;13.71;33.08
42411;BME280;28056;51.112;0.984;2023-04-04T11:40:42;101841.54;;;14.23;29.30
42411;BME280;28056;51.112;0.984;2023-04-04T11:43:19;101839.47;;;14.30;31.73
42411;BME280;28056;51.112;0.984;2023-04-04T11:45:47;101841.24;;;13.55;31.48
42411;BME280;28056;51.112;0.984;2023-04-04T11:48:17;101833.96;;;14.08;33.17
42411;BME280;28056;51.112;0.984;2023-04-04T11:50:46;101836.00;;;13.73;31.80
42411;BME280;28056;51.112;0.984;2023-04-04T11:53:15;101832.95;;;13.95;31.04
42411;BME280;28056;51.112;0.984;2023-04-04T11:55:43;101832.65;;;14.11;32.64
42411;BME280;28056;51.112;0.984;2023-04-04T11:58:16;101830.37;;;13.80;32.34
42411;BME280;28056;51.112;0.984;2023-04-04T12:00:45;101823.11;;;14.86;31.66
42411;BME280;28056;51.112;0.984;2023-04-04T12:03:15;101823.56;;;15.53;32.87
42411;BME280;28056;51.112;0.984;2023-04-04T12:05:43;101822.09;;;15.33;32.40
42411;BME280;28056;51.112;0.984;2023-04-04T12:08:13;101817.19;;;16.28;28.98
42411;BME280;28056;51.112;0.984;2023-04-04T12:10:42;101812.68;;;16.15;28.91
42411;BME280;28056;51.112;0.984;2023-04-04T12:13:09;101817.12;;;15.32;29.15
42411;BME280;28056;51.112;0.984;2023-04-04T12:15:37;101821.61;;;15.80;27.82
42411;BME280;28056;51.112;0.984;2023-04-04T12:18:06;101820.27;;;14.84;26.91
42411;BME280;28056;51.112;0.984;2023-04-04T12:20:37;101824.02;;;15.18;28.82
42411;BME280;28056;51.112;0.984;2023-04-04T12:23:04;101826.95;;;16.03;30.53
42411;BME280;28056;51.112;0.984;2023-04-04T12:25:32;101818.96;;;15.26;28.57
42411;BME280;28056;51.112;0.984;2023-04-04T12:28:02;101813.87;;;15.05;26.50
42411;BME280;28056;51.112;0.984;2023-04-04T12:30:31;101810.78;;;15.52;26.52
42411;BME280;28056;51.112;0.984;2023-04-04T12:32:59;101807.88;;;15.78;29.96
42411;BME280;28056;51.112;0.984;2023-04-04T12:35:27;101809.03;;;15.52;30.14
42411;BME280;28056;51.112;0.984;2023-04-04T12:37:58;101805.97;;;14.51;30.85
42411;BME280;28056;51.112;0.984;2023-04-04T12:40:30;101806.63;;;16.58;25.25
42411;BME280;28056;51.112;0.984;2023-04-04T12:42:59;101809.80;;;17.09;28.98
42411;BME280;28056;51.112;0.984;2023-04-04T12:45:26;101805.98;;;16.21;28.43
42411;BME280;28056;51.112;0.984;2023-04-04T12:47:55;101806.90;;;16.86;26.05
42411;BME280;28056;51.112;0.984;2023-04-04T12:50:24;101806.30;;;16.66;29.92
42411;BME280;28056;51.112;0.984;2023-04-04T12:52:53;101801.02;;;16.12;27.05
42411;BME280;28056;51.112;0.984;2023-04-04T12:55:22;101799.32;;;16.29;27.55
42411;BME280;28056;51.112;0.984;2023-04-04T12:57:50;101799.21;;;16.57;25.88
42411;BME280;28056;51.112;0.984;2023-04-04T13:00:19;101792.35;;;17.91;27.00
42411;BME280;28056;51.112;0.984;2023-04-04T13:02:49;101791.01;;;17.09;29.65
42411;BME280;28056;51.112;0.984;2023-04-04T13:05:18;101784.80;;;17.08;26.66
42411;BME280;28056;51.112;0.984;2023-04-04T13:07:45;101784.94;;;17.30;26.15
42411;BME280;28056;51.112;0.984;2023-04-04T13:10:14;101788.22;;;17.31;29.10